Time;durP1;ratioP1;P1;durP2;ratioP2;P2;SDS_P1;SDS_P2;PMS_P1;PMS_P2;Temp;Humidity;BMP_temperature;BMP_pressure;BME280_temperature;BME280_humidity;BME280_pressure;Samples;Min_cycle;Max_cycle;Signal;HPM_P1;HPM_P2
2023/02/04 00:00:36;;;;;;;17.10;9.27;;;9.70;99.90;;;;;;5024341;28;20189;-65
2023/02/04 00:03:07;;;;;;;13.70;9.70;;;9.70;99.90;;;;;;5026510;28;20681;-65
2023/02/04 00:05:37;;;;;;;23.13;10.20;;;9.80;99.90;;;;;;5028646;28;20209;-65
2023/02/04 00:08:06;;;;;;;15.93;9.43;;;9.70;99.90;;;;;;5063474;28;20236;-65
2023/02/04 00:10:34;;;;;;;17.13;9.80;;;9.70;99.90;;;;;;5030219;28;20193;-65
2023/02/04 00:13:03;;;;;;;17.77;10.30;;;9.70;99.90;;;;;;5036366;28;20190;-65
2023/02/04 00:15:31;;;;;;;16.07;9.77;;;9.70;99.90;;;;;;5059780;28;20200;-65
2023/02/04 00:18:00;;;;;;;18.37;10.27;;;9.70;99.90;;;;;;5031216;28;20200;-65
2023/02/04 00:20:29;;;;;;;19.17;10.50;;;9.70;99.90;;;;;;5028643;28;20197;-65
2023/02/04 00:22:59;;;;;;;15.77;10.13;;;9.70;99.90;;;;;;5032007;28;20238;-65
2023/02/04 00:25:28;;;;;;;21.90;10.40;;;9.70;99.90;;;;;;5032081;28;20208;-65
2023/02/04 00:27:56;;;;;;;19.93;10.00;;;9.70;99.90;;;;;;5037165;28;20671;-65
2023/02/04 00:30:25;;;;;;;18.70;10.97;;;9.70;99.90;;;;;;5030265;28;20627;-65
2023/02/04 00:32:55;;;;;;;18.47;10.70;;;9.70;99.90;;;;;;5039969;28;20193;-65
2023/02/04 00:35:24;;;;;;;15.43;10.07;;;9.70;99.90;;;;;;5036740;28;20197;-65
2023/02/04 00:37:52;;;;;;;21.50;10.47;;;9.70;99.90;;;;;;5044549;28;20197;-65
2023/02/04 00:40:22;;;;;;;21.83;10.47;;;9.70;99.90;;;;;;5038918;28;20285;-65
2023/02/04 00:42:50;;;;;;;17.70;10.20;;;9.70;99.90;;;;;;5039777;28;20670;-65
2023/02/04 00:45:18;;;;;;;24.07;10.73;;;9.70;99.90;;;;;;5033748;28;20217;-65
2023/02/04 00:47:47;;;;;;;21.27;11.30;;;9.60;99.90;;;;;;5061276;28;20648;-65
2023/02/04 00:50:15;;;;;;;25.23;12.50;;;9.60;99.90;;;;;;5040407;28;20198;-65
2023/02/04 00:52:44;;;;;;;19.80;11.03;;;9.60;99.90;;;;;;5020184;28;20190;-65
2023/02/04 00:55:15;;;;;;;21.40;11.03;;;9.60;99.90;;;;;;5030323;28;20208;-66
2023/02/04 00:57:46;;;;;;;18.30;11.67;;;9.60;99.90;;;;;;5034754;28;20201;-64
2023/02/04 01:00:17;;;;;;;20.77;11.83;;;9.50;99.90;;;;;;5066570;28;20229;-65
2023/02/04 01:02:46;;;;;;;23.83;11.83;;;9.50;99.90;;;;;;5035517;28;20217;-65
2023/02/04 01:05:14;;;;;;;23.90;12.40;;;9.50;99.90;;;;;;5032609;28;20228;-65
2023/02/04 01:07:43;;;;;;;18.27;11.60;;;9.50;99.90;;;;;;5030714;28;20233;-65
2023/02/04 01:10:11;;;;;;;21.10;12.60;;;9.50;99.90;;;;;;5032266;28;20674;-65
2023/02/04 01:12:39;;;;;;;16.87;11.87;;;9.40;99.90;;;;;;5032080;28;20192;-65
2023/02/04 01:15:11;;;;;;;21.90;12.03;;;9.40;99.90;;;;;;5020691;28;20690;-65
2023/02/04 01:17:40;;;;;;;21.43;11.43;;;9.40;99.90;;;;;;5032709;28;20193;-65
2023/02/04 01:20:10;;;;;;;22.43;13.00;;;9.40;99.90;;;;;;5032781;28;20193;-65
2023/02/04 01:22:38;;;;;;;21.83;13.00;;;9.40;99.90;;;;;;5030949;28;20280;-65
2023/02/04 01:25:07;;;;;;;26.40;14.63;;;9.40;99.90;;;;;;5032957;28;20544;-65
2023/02/04 01:27:36;;;;;;;30.53;14.13;;;9.30;99.90;;;;;;5034607;28;20193;-65
2023/02/04 01:30:06;;;;;;;28.90;14.80;;;9.30;99.90;;;;;;5034033;28;20204;-65
2023/02/04 01:32:35;;;;;;;26.37;13.97;;;9.30;99.90;;;;;;5034815;28;20777;-65
2023/02/04 01:35:05;;;;;;;22.90;14.17;;;9.30;99.90;;;;;;5028483;28;20205;-65
2023/02/04 01:37:33;;;;;;;38.97;15.13;;;9.30;99.90;;;;;;5031606;28;20259;-66
2023/02/04 01:40:01;;;;;;;27.37;14.47;;;9.30;99.90;;;;;;5032262;28;20198;-66
2023/02/04 01:42:29;;;;;;;25.00;14.73;;;9.30;99.90;;;;;;5033564;28;20209;-65
2023/02/04 01:44:58;;;;;;;25.50;14.97;;;9.30;99.90;;;;;;5032563;28;20220;-65
2023/02/04 01:47:26;;;;;;;22.30;14.97;;;9.20;99.90;;;;;;5034400;28;20198;-65
2023/02/04 01:49:56;;;;;;;26.63;14.37;;;9.20;99.90;;;;;;5027187;28;20197;-66
2023/02/04 01:52:25;;;;;;;23.73;14.00;;;9.20;99.90;;;;;;5063210;28;20285;-65
2023/02/04 01:54:53;;;;;;;27.87;14.43;;;9.20;99.90;;;;;;5029950;28;20648;-66
2023/02/04 01:57:22;;;;;;;24.00;15.30;;;9.20;99.90;;;;;;5032863;28;20644;-65
2023/02/04 01:59:59;;;;;;;24.33;14.03;;;9.20;99.90;;;;;;5030663;28;20200;-65
2023/02/04 02:02:42;;;;;;;23.10;14.20;;;9.20;99.90;;;;;;5031731;28;20213;-65
2023/02/04 02:05:15;;;;;;;29.43;14.77;;;9.20;99.90;;;;;;5033009;28;20306;-66
2023/02/04 02:07:44;;;;;;;24.17;13.80;;;9.20;99.90;;;;;;5035449;28;20711;-66
2023/02/04 02:10:14;;;;;;;21.97;13.53;;;9.20;99.90;;;;;;5029066;28;20225;-65
2023/02/04 02:12:43;;;;;;;26.47;14.00;;;9.10;99.90;;;;;;5029808;28;20627;-66
2023/02/04 02:15:12;;;;;;;23.33;13.33;;;9.10;99.90;;;;;;5024400;28;20552;-66
2023/02/04 02:17:41;;;;;;;22.33;13.37;;;9.10;99.90;;;;;;5028991;28;20193;-65
2023/02/04 02:20:15;;;;;;;25.37;13.77;;;9.10;99.90;;;;;;5032819;28;20189;-65
2023/02/04 02:22:55;;;;;;;30.77;14.07;;;9.10;99.90;;;;;;5028566;28;20523;-66
2023/02/04 02:25:25;;;;;;;28.20;14.23;;;9.10;99.90;;;;;;5026845;28;20233;-66
2023/02/04 02:27:54;;;;;;;25.23;14.30;;;9.10;99.90;;;;;;5036130;28;20204;-66
2023/02/04 02:30:23;;;;;;;22.63;13.23;;;9.10;99.90;;;;;;5058888;28;20281;-65
2023/02/04 02:32:52;;;;;;;21.90;14.27;;;9.10;99.90;;;;;;5035909;28;20197;-66
2023/02/04 02:35:21;;;;;;;24.30;13.93;;;9.10;99.90;;;;;;5030693;28;20197;-65
2023/02/04 02:37:49;;;;;;;30.07;14.43;;;9.10;99.90;;;;;;5025736;28;20224;-66
2023/02/04 02:40:18;;;;;;;25.80;14.00;;;9.10;99.90;;;;;;5030044;28;20204;-66
2023/02/04 02:42:50;;;;;;;26.27;14.67;;;9.10;99.90;;;;;;5028277;28;20579;-65
2023/02/04 02:45:23;;;;;;;25.87;15.07;;;9.10;99.90;;;;;;5034501;28;20192;-66
2023/02/04 02:47:52;;;;;;;26.70;14.03;;;9.10;99.90;;;;;;5024907;28;20194;-66
2023/02/04 02:50:23;;;;;;;25.70;14.23;;;9.10;99.90;;;;;;5029063;28;20205;-66
2023/02/04 02:52:52;;;;;;;30.20;14.40;;;9.10;99.90;;;;;;5027156;28;20266;-66
2023/02/04 02:55:23;;;;;;;29.83;15.00;;;9.10;99.90;;;;;;5030107;28;20201;-66
2023/02/04 02:57:55;;;;;;;28.90;14.60;;;9.10;99.90;;;;;;5028107;28;20190;-66
2023/02/04 03:00:25;;;;;;;27.87;14.97;;;9.10;99.90;;;;;;5029193;28;20229;-66
2023/02/04 03:02:58;;;;;;;28.57;15.30;;;9.10;99.90;;;;;;5035547;28;20275;-66
2023/02/04 03:05:30;;;;;;;25.80;15.10;;;9.10;99.90;;;;;;5038557;28;20228;-65
2023/02/04 03:07:59;;;;;;;31.03;15.63;;;9.10;99.90;;;;;;5029320;28;20239;-66
2023/02/04 03:10:27;;;;;;;32.50;16.27;;;9.10;99.90;;;;;;5035417;28;20315;-65
2023/02/04 03:12:57;;;;;;;30.33;16.10;;;9.10;99.90;;;;;;5026557;28;20272;-66
2023/02/04 03:15:26;;;;;;;27.23;14.93;;;9.00;99.90;;;;;;5032181;28;20197;-66
2023/02/04 03:17:55;;;;;;;30.53;16.57;;;9.00;99.90;;;;;;5027652;28;20208;-66
2023/02/04 03:20:25;;;;;;;30.90;15.70;;;9.00;99.90;;;;;;5027744;28;20280;-65
2023/02/04 03:22:54;;;;;;;27.93;16.17;;;9.00;99.90;;;;;;5027290;28;20201;-66
2023/02/04 03:25:25;;;;;;;30.07;16.60;;;9.00;99.90;;;;;;5029957;28;20207;-66
2023/02/04 03:27:54;;;;;;;27.70;16.67;;;9.00;99.90;;;;;;5028706;28;20685;-66
2023/02/04 03:30:25;;;;;;;30.10;16.57;;;9.00;99.90;;;;;;5029500;28;20807;-66
2023/02/04 03:32:54;;;;;;;32.73;17.30;;;9.00;99.90;;;;;;5030672;28;20185;-66
2023/02/04 03:35:22;;;;;;;25.20;15.57;;;9.00;99.90;;;;;;5027194;28;20694;-67
2023/02/04 03:37:50;;;;;;;31.30;16.93;;;9.00;99.90;;;;;;5029914;28;20201;-66
2023/02/04 03:40:19;;;;;;;26.03;15.97;;;9.00;99.90;;;;;;5034344;28;20221;-66
2023/02/04 03:42:47;;;;;;;29.20;16.23;;;9.00;99.90;;;;;;5031488;28;20193;-66
2023/02/04 03:45:16;;;;;;;28.40;16.40;;;9.00;99.90;;;;;;5032859;28;20190;-66
2023/02/04 03:47:46;;;;;;;29.17;17.27;;;9.00;99.90;;;;;;5032583;28;20209;-66
2023/02/04 03:50:15;;;;;;;30.20;16.53;;;9.00;99.90;;;;;;5027856;28;20205;-66
2023/02/04 03:52:43;;;;;;;30.07;18.00;;;9.00;99.90;;;;;;5033316;28;20194;-66
2023/02/04 03:55:12;;;;;;;29.13;17.50;;;9.00;99.90;;;;;;5028827;28;20556;-67
2023/02/04 03:57:40;;;;;;;30.43;16.40;;;9.00;99.90;;;;;;5030872;28;20189;-66
2023/02/04 04:00:10;;;;;;;27.43;17.07;;;9.00;99.90;;;;;;5040382;28;20256;-66
2023/02/04 04:02:38;;;;;;;32.40;17.83;;;8.90;99.90;;;;;;5033393;28;20189;-67
2023/02/04 04:05:09;;;;;;;34.00;18.63;;;8.90;99.90;;;;;;5042885;28;20221;-66
2023/02/04 04:07:38;;;;;;;35.17;18.77;;;8.90;99.90;;;;;;5025170;28;20231;-66
2023/02/04 04:10:07;;;;;;;34.07;18.53;;;8.90;99.90;;;;;;5047588;28;20212;-66
2023/02/04 04:12:35;;;;;;;36.77;19.40;;;8.90;99.90;;;;;;5030758;28;20206;-66
2023/02/04 04:15:44;;;;;;;34.17;18.80;;;8.90;99.90;;;;;;5025863;28;20204;-67
2023/02/04 04:18:52;;;;;;;36.07;19.50;;;8.90;99.90;;;;;;5042278;28;20247;-66
2023/02/04 04:22:02;;;;;;;35.03;18.60;;;8.90;99.90;;;;;;5039693;28;20227;-66
2023/02/04 04:25:10;;;;;;;38.20;18.50;;;8.90;99.90;;;;;;5032741;28;20225;-66
2023/02/04 04:28:19;;;;;;;39.63;19.57;;;8.90;99.90;;;;;;5026058;28;20482;-66
2023/02/04 04:31:27;;;;;;;37.60;19.77;;;8.90;99.90;;;;;;5030711;28;20255;-66
2023/02/04 04:34:36;;;;;;;42.53;19.77;;;8.90;99.90;;;;;;5023522;28;20200;-66
2023/02/04 04:37:45;;;;;;;35.57;18.70;;;8.90;99.90;;;;;;5028897;28;20813;-66
2023/02/04 04:40:54;;;;;;;41.53;19.70;;;8.90;99.90;;;;;;5026609;28;20238;-66
2023/02/04 04:44:02;;;;;;;48.90;21.17;;;8.90;99.90;;;;;;5018284;28;20236;-66
2023/02/04 04:47:10;;;;;;;47.57;21.67;;;8.90;99.90;;;;;;5029669;28;20287;-66
2023/02/04 04:50:19;;;;;;;47.87;21.97;;;8.90;99.90;;;;;;5026692;28;20225;-66
2023/02/04 04:53:29;;;;;;;52.97;22.40;;;8.80;99.90;;;;;;5029807;28;20707;-66
2023/02/04 04:56:37;;;;;;;49.17;22.57;;;8.80;99.90;;;;;;5023729;28;20228;-66
2023/02/04 04:59:45;;;;;;;51.27;22.83;;;8.80;99.90;;;;;;5024146;28;20256;-66
2023/02/04 05:02:53;;;;;;;49.23;21.57;;;8.80;99.90;;;;;;5028267;28;20285;-66
2023/02/04 05:06:00;;;;;;;50.80;21.90;;;8.80;99.90;;;;;;5025538;28;20232;-66
2023/02/04 05:08:33;;;;;;;58.27;24.27;;;8.80;99.90;;;;;;5039713;28;20234;-66
2023/02/04 05:11:01;;;;;;;51.43;22.87;;;8.80;99.90;;;;;;5048678;28;20204;-66
2023/02/04 05:13:32;;;;;;;61.77;23.00;;;8.80;99.90;;;;;;5032905;28;20640;-66
2023/02/04 05:16:01;;;;;;;48.63;21.07;;;8.80;99.90;;;;;;5031369;28;20652;-66
2023/02/04 05:18:29;;;;;;;55.13;22.83;;;8.80;99.90;;;;;;5031272;28;20225;-66
2023/02/04 05:20:57;;;;;;;52.77;21.70;;;8.80;99.90;;;;;;5033166;28;20193;-66
2023/02/04 05:23:25;;;;;;;54.87;22.57;;;8.80;99.90;;;;;;5031735;28;20288;-66
2023/02/04 05:25:55;;;;;;;48.67;20.97;;;8.80;99.90;;;;;;5063023;28;20202;-66
2023/02/04 05:28:24;;;;;;;58.97;23.13;;;8.80;99.90;;;;;;5032021;28;20189;-66
2023/02/04 05:30:53;;;;;;;50.83;21.53;;;8.80;99.90;;;;;;5042719;28;20194;-66
2023/02/04 05:33:24;;;;;;;51.60;21.87;;;8.80;99.90;;;;;;5027091;28;20198;-66
2023/02/04 05:35:52;;;;;;;51.63;21.10;;;8.80;99.90;;;;;;5023125;28;20209;-66
2023/02/04 05:38:21;;;;;;;47.27;21.33;;;8.80;99.90;;;;;;5031558;28;20283;-66
2023/02/04 05:40:49;;;;;;;54.73;22.07;;;8.80;99.90;;;;;;5026806;28;20197;-66
2023/02/04 05:43:19;;;;;;;43.47;20.93;;;8.80;99.90;;;;;;5025246;28;20249;-66
2023/02/04 05:45:47;;;;;;;60.40;22.47;;;8.80;99.90;;;;;;5028548;28;20240;-66
2023/02/04 05:48:15;;;;;;;50.60;20.60;;;8.80;99.90;;;;;;5027614;28;20205;-66
2023/02/04 05:50:44;;;;;;;49.10;20.40;;;8.80;99.90;;;;;;5032283;28;20198;-66
2023/02/04 05:53:12;;;;;;;55.20;21.83;;;8.80;99.90;;;;;;5021562;28;20208;-66
2023/02/04 05:55:40;;;;;;;49.87;20.20;;;8.80;99.90;;;;;;5034145;28;20185;-66
2023/02/04 05:58:09;;;;;;;58.43;20.83;;;8.80;99.90;;;;;;5065693;28;20208;-66
2023/02/04 06:00:39;;;;;;;51.87;21.23;;;8.70;99.90;;;;;;5031546;28;20243;-66
2023/02/04 06:03:07;;;;;;;49.10;20.83;;;8.70;99.90;;;;;;5032133;28;20644;-66
2023/02/04 06:05:35;;;;;;;51.40;20.30;;;8.70;99.90;;;;;;5032333;28;20621;-66
2023/02/04 06:08:04;;;;;;;45.47;19.80;;;8.70;99.90;;;;;;5031396;28;20237;-66
2023/02/04 06:10:32;;;;;;;71.27;27.13;;;8.80;99.90;;;;;;5028617;28;20909;-66
2023/02/04 06:13:01;;;;;;;60.73;24.47;;;8.70;99.90;;;;;;5035461;28;20193;-66
2023/02/04 06:15:29;;;;;;;62.53;25.00;;;8.70;99.90;;;;;;5029210;28;20225;-66
2023/02/04 06:17:59;;;;;;;50.10;21.23;;;8.70;99.90;;;;;;5028573;28;20208;-66
2023/02/04 06:20:30;;;;;;;50.90;22.60;;;8.80;99.90;;;;;;5029684;28;20555;-66
2023/02/04 06:22:59;;;;;;;53.07;21.60;;;8.80;99.90;;;;;;5026214;28;20285;-66
2023/02/04 06:25:27;;;;;;;49.13;20.50;;;8.70;99.90;;;;;;5063395;28;20682;-66
2023/02/04 06:27:58;;;;;;;51.23;20.63;;;8.70;99.90;;;;;;5041470;28;20216;-66
2023/02/04 06:30:26;;;;;;;49.20;21.50;;;8.70;99.90;;;;;;5020629;28;20831;-66
2023/02/04 06:32:54;;;;;;;54.17;22.60;;;8.80;99.90;;;;;;5038591;28;20588;-66
2023/02/04 06:35:24;;;;;;;49.50;21.57;;;8.80;99.90;;;;;;5029489;28;20201;-66
2023/02/04 06:37:52;;;;;;;46.60;20.40;;;8.80;99.90;;;;;;5026932;28;20640;-66
2023/02/04 06:40:20;;;;;;;55.20;21.87;;;8.70;99.90;;;;;;5023386;28;20193;-66
2023/02/04 06:42:49;;;;;;;53.93;22.13;;;8.70;99.90;;;;;;5024462;28;20199;-66
2023/02/04 06:45:18;;;;;;;49.33;21.87;;;8.70;99.90;;;;;;5018556;28;20210;-66
2023/02/04 06:47:46;;;;;;;52.40;21.43;;;8.70;99.90;;;;;;5031136;28;20202;-66
2023/02/04 06:50:17;;;;;;;58.30;22.70;;;8.70;99.90;;;;;;5029246;28;20204;-66
2023/02/04 06:52:48;;;;;;;65.63;26.33;;;8.70;99.90;;;;;;5036569;28;20555;-66
2023/02/04 06:55:17;;;;;;;59.87;24.97;;;8.70;99.90;;;;;;5021963;28;20639;-66
2023/02/04 06:57:46;;;;;;;55.97;23.50;;;8.70;99.90;;;;;;5024041;28;20208;-66
2023/02/04 07:00:15;;;;;;;67.87;25.13;;;8.70;99.90;;;;;;5023194;28;20197;-66
2023/02/04 07:02:45;;;;;;;57.93;22.23;;;8.70;99.90;;;;;;5031579;28;20204;-66
2023/02/04 07:05:14;;;;;;;54.20;22.27;;;8.70;99.90;;;;;;5030147;28;20226;-67
2023/02/04 07:07:42;;;;;;;59.93;24.10;;;8.70;99.90;;;;;;5035747;28;20248;-66
2023/02/04 07:10:13;;;;;;;62.83;25.20;;;8.70;99.90;;;;;;5024495;28;20220;-66
2023/02/04 07:12:41;;;;;;;59.67;22.60;;;8.70;99.90;;;;;;5026874;28;20264;-66
2023/02/04 07:15:10;;;;;;;58.20;23.17;;;8.70;99.90;;;;;;5020222;28;21317;-66
2023/02/04 07:17:39;;;;;;;61.13;22.57;;;8.70;99.90;;;;;;5024885;28;20549;-66
2023/02/04 07:20:08;;;;;;;55.67;22.60;;;8.70;99.90;;;;;;5030984;28;20204;-66
2023/02/04 07:22:36;;;;;;;55.63;21.43;;;8.70;99.90;;;;;;5028363;28;20200;-66
2023/02/04 07:25:05;;;;;;;55.80;22.77;;;8.70;99.90;;;;;;5026871;28;20547;-66
2023/02/04 07:27:35;;;;;;;51.00;22.07;;;8.70;99.90;;;;;;5023032;28;20663;-66
2023/02/04 07:30:03;;;;;;;51.87;22.23;;;8.70;99.90;;;;;;5014435;28;20284;-66
2023/02/04 07:32:32;;;;;;;59.77;22.03;;;8.70;99.90;;;;;;5025562;28;20229;-66
2023/02/04 07:35:00;;;;;;;50.67;20.90;;;8.70;99.90;;;;;;5023215;28;20193;-66
2023/02/04 07:37:30;;;;;;;58.47;22.20;;;8.70;99.90;;;;;;5024408;28;20251;-66
2023/02/04 07:39:58;;;;;;;53.10;22.17;;;8.70;99.90;;;;;;5022764;28;20212;-67
2023/02/04 07:42:26;;;;;;;49.33;20.90;;;8.70;99.90;;;;;;5024240;28;20208;-67
2023/02/04 07:44:56;;;;;;;61.47;21.33;;;8.70;99.90;;;;;;5026700;28;20221;-66
2023/02/04 07:47:24;;;;;;;48.73;21.23;;;8.70;99.90;;;;;;5024140;28;20224;-66
2023/02/04 07:49:55;;;;;;;44.97;19.57;;;8.70;99.90;;;;;;5036371;28;20205;-67
2023/02/04 07:52:24;;;;;;;50.07;20.73;;;8.70;99.90;;;;;;5026550;28;20702;-66
2023/02/04 07:54:53;;;;;;;47.27;20.00;;;8.70;99.90;;;;;;5022186;28;20648;-67
2023/02/04 07:57:21;;;;;;;54.77;21.90;;;8.70;99.90;;;;;;5025884;28;20536;-67
2023/02/04 07:59:50;;;;;;;49.13;20.80;;;8.80;99.90;;;;;;5040356;28;20910;-67
2023/02/04 08:02:20;;;;;;;47.80;19.87;;;8.80;99.90;;;;;;5030581;28;20200;-66
2023/02/04 08:04:48;;;;;;;51.07;21.97;;;8.80;99.90;;;;;;5030151;28;20883;-67
2023/02/04 08:07:16;;;;;;;54.73;21.60;;;8.80;99.90;;;;;;5030492;28;20668;-66
2023/02/04 08:09:45;;;;;;;49.83;20.37;;;8.80;99.90;;;;;;5031020;28;20201;-66
2023/02/04 08:12:14;;;;;;;49.90;20.17;;;8.80;99.90;;;;;;5027268;28;20202;-67
2023/02/04 08:14:42;;;;;;;45.40;20.10;;;8.80;99.90;;;;;;5031421;28;20201;-67
2023/02/04 08:17:12;;;;;;;46.87;19.40;;;8.80;99.90;;;;;;5031087;28;20247;-67
2023/02/04 08:19:42;;;;;;;44.03;18.50;;;8.80;99.90;;;;;;5055700;28;20967;-66
2023/02/04 08:22:11;;;;;;;52.07;19.83;;;8.90;99.90;;;;;;5027006;28;20197;-66
2023/02/04 08:24:39;;;;;;;44.40;18.70;;;8.90;99.90;;;;;;5025592;28;20201;-66
2023/02/04 08:27:08;;;;;;;58.17;24.03;;;8.90;99.90;;;;;;5021301;28;20215;-66
2023/02/04 08:29:36;;;;;;;60.37;23.97;;;8.90;99.90;;;;;;5019240;28;20683;-66
2023/02/04 08:32:06;;;;;;;52.60;22.47;;;8.90;99.90;;;;;;5020605;28;20201;-66
2023/02/04 08:34:34;;;;;;;53.37;23.20;;;8.90;99.90;;;;;;5032398;28;20205;-66
2023/02/04 08:37:06;;;;;;;74.00;30.17;;;9.00;99.90;;;;;;5023293;28;20194;-66
2023/02/04 08:39:34;;;;;;;53.97;23.83;;;9.00;99.90;;;;;;5023523;28;20202;-66
2023/02/04 08:42:03;;;;;;;52.07;21.77;;;9.00;99.90;;;;;;5022975;28;20201;-66
2023/02/04 08:44:31;;;;;;;49.00;20.93;;;9.00;99.90;;;;;;5020190;28;20205;-66
2023/02/04 08:47:00;;;;;;;56.47;22.67;;;9.10;99.90;;;;;;5020802;28;20202;-66
2023/02/04 08:49:28;;;;;;;50.60;21.30;;;9.10;99.90;;;;;;5019422;28;20704;-67
2023/02/04 08:51:56;;;;;;;48.20;19.80;;;9.10;99.90;;;;;;5026683;28;20544;-66
2023/02/04 08:54:26;;;;;;;47.57;19.67;;;9.10;99.90;;;;;;5026094;28;20190;-66
2023/02/04 08:56:54;;;;;;;52.97;21.33;;;9.10;99.90;;;;;;5024936;28;20213;-67
2023/02/04 08:59:24;;;;;;;53.70;23.23;;;9.20;99.90;;;;;;5027545;28;20206;-66
2023/02/04 09:01:53;;;;;;;53.77;22.23;;;9.20;99.90;;;;;;5047264;28;20201;-67
2023/02/04 09:04:22;;;;;;;51.00;21.40;;;9.30;99.90;;;;;;5065916;28;20316;-66
2023/02/04 09:06:51;;;;;;;54.33;22.23;;;9.30;99.90;;;;;;5031689;28;20209;-66
2023/02/04 09:09:20;;;;;;;59.00;25.17;;;9.30;99.90;;;;;;5031501;28;20233;-66
2023/02/04 09:11:52;;;;;;;51.93;21.83;;;9.40;99.90;;;;;;5030742;28;20310;-67
2023/02/04 09:14:20;;;;;;;62.97;26.87;;;9.40;99.90;;;;;;5033702;28;20198;-67
2023/02/04 09:16:49;;;;;;;56.87;23.77;;;9.40;99.90;;;;;;5031055;28;20193;-67
2023/02/04 09:19:22;;;;;;;62.40;26.20;;;9.40;99.90;;;;;;5048115;28;20203;-66
2023/02/04 09:21:51;;;;;;;56.50;24.60;;;9.40;99.90;;;;;;5027786;28;20190;-67
2023/02/04 09:24:22;;;;;;;55.93;24.20;;;9.50;99.90;;;;;;5038364;28;20194;-66
2023/02/04 09:26:52;;;;;;;57.93;24.17;;;9.50;99.90;;;;;;5020928;28;20304;-66
2023/02/04 09:29:20;;;;;;;58.07;25.37;;;9.50;99.90;;;;;;5032414;28;20201;-66
2023/02/04 09:31:48;;;;;;;52.63;22.87;;;9.50;99.90;;;;;;5031744;28;20198;-66
2023/02/04 09:34:17;;;;;;;57.43;25.30;;;9.50;99.90;;;;;;5032245;28;20224;-66
2023/02/04 09:36:45;;;;;;;57.17;25.83;;;9.60;99.90;;;;;;5031720;28;20205;-66
2023/02/04 09:39:14;;;;;;;56.47;26.63;;;9.70;99.90;;;;;;5032629;28;20220;-67
2023/02/04 09:41:43;;;;;;;56.87;28.07;;;9.70;99.90;;;;;;5032333;28;20192;-67
2023/02/04 09:44:15;;;;;;;62.43;28.23;;;9.80;99.90;;;;;;5030046;28;20209;-66
2023/02/04 09:46:47;;;;;;;57.43;24.57;;;9.80;99.90;;;;;;5058406;28;20651;-66
2023/02/04 09:49:16;;;;;;;59.20;25.73;;;9.80;99.90;;;;;;5028746;28;20204;-66
2023/02/04 09:51:46;;;;;;;56.60;24.20;;;9.90;99.90;;;;;;5025870;28;20204;-66
2023/02/04 09:54:17;;;;;;;52.63;25.00;;;9.80;99.90;;;;;;5021092;28;20646;-66
2023/02/04 09:56:45;;;;;;;57.17;25.13;;;9.90;99.90;;;;;;5048394;28;20186;-66
2023/02/04 09:59:18;;;;;;;55.13;24.10;;;10.00;99.90;;;;;;5023870;28;20205;-66
2023/02/04 10:01:51;;;;;;;59.53;25.70;;;10.10;99.90;;;;;;5032941;28;20212;-67
2023/02/04 10:04:21;;;;;;;50.20;23.43;;;10.20;99.90;;;;;;5023887;28;20228;-66
2023/02/04 10:06:49;;;;;;;48.90;24.33;;;10.40;99.90;;;;;;5030542;28;20205;-67
2023/02/04 10:09:18;;;;;;;50.67;23.50;;;10.60;99.90;;;;;;5031486;28;20226;-66
2023/02/04 10:11:48;;;;;;;44.30;22.07;;;10.60;99.90;;;;;;5027778;28;20288;-66
2023/02/04 10:14:21;;;;;;;41.57;21.70;;;10.60;99.90;;;;;;5029124;28;20205;-66
2023/02/04 10:16:54;;;;;;;46.43;21.53;;;10.60;99.90;;;;;;5031620;28;20210;-66
2023/02/04 10:19:27;;;;;;;43.60;21.07;;;10.60;99.90;;;;;;5027594;28;20262;-66
2023/02/04 10:21:56;;;;;;;40.60;19.17;;;10.50;99.90;;;;;;5029815;28;20725;-67
2023/02/04 10:24:26;;;;;;;39.07;20.90;;;10.50;99.90;;;;;;5027536;28;20198;-66
2023/02/04 10:27:06;;;;;;;43.57;21.67;;;10.40;99.90;;;;;;5031551;28;20217;-66
2023/02/04 10:29:37;;;;;;;33.37;19.27;;;10.30;99.90;;;;;;5030229;28;20216;-66
2023/02/04 10:32:05;;;;;;;34.50;19.40;;;10.40;99.90;;;;;;5029478;28;20198;-66
2023/02/04 10:34:36;;;;;;;37.30;19.43;;;10.40;99.90;;;;;;5028897;28;20665;-66
2023/02/04 10:37:18;;;;;;;36.83;18.23;;;10.50;99.90;;;;;;5031381;28;20220;-66
2023/02/04 10:39:48;;;;;;;38.47;19.53;;;10.50;99.90;;;;;;5011951;28;20197;-66
2023/02/04 10:42:22;;;;;;;34.63;18.53;;;10.60;99.90;;;;;;5024747;28;20457;-66
2023/02/04 10:44:52;;;;;;;36.13;19.57;;;10.70;99.90;;;;;;5023829;28;20204;-66
2023/02/04 10:47:23;;;;;;;35.47;20.07;;;10.80;99.90;;;;;;5024285;28;20213;-66
2023/02/04 10:49:56;;;;;;;52.33;23.50;;;10.90;99.90;;;;;;5025275;28;20524;-66
2023/02/04 10:52:34;;;;;;;40.57;20.60;;;11.00;99.90;;;;;;5031583;28;20296;-66
2023/02/04 10:55:03;;;;;;;39.43;19.87;;;11.00;99.90;;;;;;5021888;28;20200;-66
2023/02/04 10:57:34;;;;;;;36.40;18.90;;;11.00;99.90;;;;;;5028914;28;20190;-66
2023/02/04 11:00:14;;;;;;;39.63;20.73;;;11.00;99.90;;;;;;5060360;28;20208;-66
2023/02/04 11:02:45;;;;;;;37.47;19.53;;;11.10;99.90;;;;;;5025837;28;20591;-67
2023/02/04 11:05:16;;;;;;;34.73;18.30;;;11.10;99.90;;;;;;5017679;28;20213;-66
2023/02/04 11:07:45;;;;;;;34.93;19.07;;;11.20;99.90;;;;;;5029883;28;20222;-66
2023/02/04 11:10:16;;;;;;;37.13;19.50;;;11.30;99.90;;;;;;5039140;28;20189;-67
2023/02/04 11:12:47;;;;;;;35.37;17.63;;;11.40;99.90;;;;;;5061494;28;20655;-67
2023/02/04 11:15:43;;;;;;;31.50;17.60;;;11.50;99.90;;;;;;5062366;28;20194;-66
2023/02/04 11:18:24;;;;;;;28.77;17.20;;;11.60;99.90;;;;;;5029727;28;20212;-67
2023/02/04 11:20:55;;;;;;;33.90;17.43;;;11.60;99.90;;;;;;5045599;28;20667;-67
2023/02/04 11:23:35;;;;;;;35.47;17.60;;;11.60;99.90;;;;;;5028888;28;20193;-66
2023/02/04 11:26:12;;;;;;;26.00;15.50;;;11.60;99.90;;;;;;5020680;28;20292;-66
2023/02/04 11:28:49;;;;;;;26.90;16.10;;;11.60;99.90;;;;;;5027057;28;20219;-66
2023/02/04 11:31:44;;;;;;;29.07;16.43;;;11.60;99.90;;;;;;5030927;28;20268;-66
2023/02/04 11:34:27;;;;;;;26.07;14.17;;;11.80;99.90;;;;;;5026051;28;20231;-66
2023/02/04 11:37:19;;;;;;;14.67;10.70;;;12.00;99.90;;;;;;5013064;28;20217;-66
2023/02/04 11:39:49;;;;;;;14.33;10.00;;;12.20;99.90;;;;;;5023152;28;20551;-67
2023/02/04 11:42:21;;;;;;;18.57;10.67;;;12.40;99.90;;;;;;5021320;28;20691;-67
2023/02/04 11:44:52;;;;;;;16.43;9.03;;;12.50;99.90;;;;;;5024071;28;20874;-67
2023/02/04 11:47:24;;;;;;;12.73;8.57;;;12.50;99.90;;;;;;5027849;28;20227;-66
2023/02/04 11:50:00;;;;;;;13.77;8.93;;;12.60;99.90;;;;;;5029680;28;20215;-66
2023/02/04 11:52:28;;;;;;;18.40;9.00;;;12.70;99.90;;;;;;5019461;28;20194;-67
2023/02/04 11:54:59;;;;;;;26.10;11.67;;;12.70;99.90;;;;;;5028705;28;20635;-66
2023/02/04 11:57:28;;;;;;;18.00;9.10;;;12.80;99.90;;;;;;5024754;28;20232;-67
2023/02/04 11:59:56;;;;;;;19.13;9.50;;;12.90;99.90;;;;;;5027277;28;20195;-66
2023/02/04 12:02:26;;;;;;;19.70;10.13;;;12.90;99.90;;;;;;5032964;28;20194;-66
2023/02/04 12:04:58;;;;;;;18.50;10.10;;;13.00;99.90;;;;;;5039116;28;20710;-66
2023/02/04 12:07:29;;;;;;;18.70;9.90;;;13.10;99.90;;;;;;5025849;28;20679;-66
2023/02/04 12:09:58;;;;;;;16.50;10.47;;;13.20;99.90;;;;;;5036889;28;20209;-67
2023/02/04 12:12:28;;;;;;;18.67;10.60;;;13.30;99.90;;;;;;5028507;28;20205;-67
2023/02/04 12:15:04;;;;;;;17.90;10.03;;;13.30;99.90;;;;;;5027094;28;21841;-66
2023/02/04 12:17:34;;;;;;;24.27;11.47;;;13.30;99.90;;;;;;5034142;28;20224;-66
2023/02/04 12:20:03;;;;;;;20.27;11.87;;;13.20;99.90;;;;;;5026885;28;20588;-66
2023/02/04 12:22:31;;;;;;;21.70;12.60;;;13.30;99.90;;;;;;5023803;28;20219;-66
2023/02/04 12:24:59;;;;;;;24.30;13.20;;;13.20;99.90;;;;;;5030918;28;20199;-66
2023/02/04 12:27:28;;;;;;;25.07;13.40;;;13.20;99.90;;;;;;5022595;28;20197;-66
2023/02/04 12:29:56;;;;;;;23.87;14.33;;;13.10;99.90;;;;;;5030016;28;20204;-66
2023/02/04 12:32:24;;;;;;;23.67;14.77;;;13.00;99.90;;;;;;5033939;28;20197;-66
2023/02/04 12:34:54;;;;;;;30.43;14.83;;;13.00;99.90;;;;;;5034471;28;20272;-66
2023/02/04 12:37:22;;;;;;;24.00;14.13;;;13.00;99.90;;;;;;5033969;28;20198;-66
2023/02/04 12:39:51;;;;;;;24.80;15.63;;;12.90;99.90;;;;;;5030719;28;20194;-66
2023/02/04 12:42:20;;;;;;;28.83;15.53;;;12.90;99.90;;;;;;5031706;28;20700;-66
2023/02/04 12:44:48;;;;;;;26.77;15.87;;;12.90;99.90;;;;;;5029021;28;20192;-66
2023/02/04 12:47:16;;;;;;;30.33;15.57;;;12.90;99.90;;;;;;5028365;28;20465;-66
2023/02/04 12:49:45;;;;;;;29.43;15.37;;;12.90;99.90;;;;;;5031035;28;20696;-66
2023/02/04 12:52:15;;;;;;;22.30;14.93;;;12.90;99.90;;;;;;5031255;28;20211;-66
2023/02/04 12:54:43;;;;;;;21.20;12.60;;;12.90;99.90;;;;;;5033062;28;20223;-66
2023/02/04 12:57:13;;;;;;;26.57;13.93;;;12.90;99.90;;;;;;5032139;28;20198;-67
2023/02/04 12:59:41;;;;;;;21.43;12.80;;;12.80;99.90;;;;;;5034390;28;20185;-66